Main page
METAR-TAF:

METAR-TAF

Airports :

Wittman Regional Airport

Oshkosh, Wisconsin, United States

latitude: 43-58-00N, longitude: 088-33-29W, elevation: 807 ft

Current weather observation

The report was made 14 minutes ago, at 19:53 UTC
Wind 6 mph from variable directions
Temperature 48°F
Humidity 40%
Pressure 30.29 in. Hg
Visibility: 10 miles
Clear sky

METAR: KOSH 241953Z VRB05KT 10SM CLR 09/M04 A3029 RMK AO2 SLP267 T00891039

Time: 15:07 (20:07 UTC)


TAF: missing

Weather observations and forecasts of more than 4000 airports (METAR and TAF reports).

The available stations are represented by yellow and red dots on the map.

Hover mouse over dot to see the name of the station.

Then click to see weather observations and forecasts.

To change the map : click on the green buttons with a black cross to zoom in, on the green button with a dash to zoom out, or on the green arrows for adjacent maps.


METAR-TAF: